createdAt,value
2023-04-02T00:01:35.520Z,61.53483194762912
2023-04-02T00:04:23.088Z,61.27601230353715
2023-04-02T00:07:25.409Z,61.11285028555243
2023-04-02T00:11:29.360Z,61.05577313209068
2023-04-02T00:14:23.418Z,60.96596292637604
2023-04-02T00:17:17.756Z,61.19898920020811
2023-04-02T00:21:21.348Z,61.692220362190135
2023-04-02T00:24:19.648Z,62.129281518056615
2023-04-02T00:27:17.268Z,61.99599500463155
2023-04-02T00:31:17.820Z,62.267211796397746
2023-04-02T00:34:21.139Z,62.46244171736618
2023-04-02T00:37:21.444Z,62.628414765494156
2023-04-02T00:41:25.980Z,62.88685613596522
2023-04-02T00:44:22.302Z,62.80677752401319
2023-04-02T00:47:21.173Z,63.45237466822675
2023-04-02T00:51:22.243Z,63.10782342172029
2023-04-02T00:54:20.580Z,63.31010534990745
2023-04-02T00:57:20.573Z,63.72014583912938
2023-04-02T01:01:18.722Z,63.780290059938174
2023-04-02T01:04:29.495Z,63.82224900779661
2023-04-02T01:07:17.525Z,63.590633013368084
2023-04-02T01:11:31.068Z,64.23972468127138
2023-04-02T01:14:26.238Z,64.41275950755423
2023-04-02T01:17:33.089Z,64.08905240822529
2023-04-02T01:21:29.666Z,63.927555519900395
2023-04-02T01:24:17.019Z,64.09097634675368
2023-04-02T01:27:21.146Z,64.34115861689855
2023-04-02T01:31:16.107Z,64.76163442116605
2023-04-02T01:34:19.310Z,64.68144694061293
2023-04-02T01:37:29.645Z,64.69019736194954
2023-04-02T01:41:25.358Z,65.0986283393064
2023-04-02T01:44:22.785Z,65.2473510561571
2023-04-02T01:47:19.220Z,65.36379958320572
2023-04-02T01:51:26.367Z,65.72955491323876
2023-04-02T01:54:17.242Z,65.94495221763317
2023-04-02T01:57:17.056Z,66.20590289470377
2023-04-02T02:01:19.746Z,66.2230816984526
2023-04-02T02:04:17.461Z,66.3561125161229
2023-04-02T02:07:18.888Z,66.4927764803661
2023-04-02T02:11:19.928Z,66.46087701247554
2023-04-02T02:14:19.316Z,66.20100611416231
2023-04-02T02:17:19.974Z,66.51761348171078
2023-04-02T02:21:28.937Z,66.59931477162633
2023-04-02T02:24:21.066Z,66.539460904227
2023-04-02T02:27:58.785Z,66.99678900949377
2023-04-02T02:31:22.303Z,67.24431615168996
2023-04-02T02:34:21.979Z,67.38252846661742
2023-04-02T02:37:22.169Z,67.65916389372498
2023-04-02T02:41:21.564Z,67.47391578892237
2023-04-02T02:44:20.609Z,67.91893504528079
2023-04-02T02:47:23.596Z,67.78162373945044
2023-04-02T02:51:22.145Z,67.69193177524961
2023-04-02T02:54:17.879Z,67.84434969085825
2023-04-02T02:57:22.225Z,67.43346208525948
2023-04-02T03:01:15.980Z,66.66075760156858
2023-04-02T03:04:21.512Z,66.36866812416942
2023-04-02T03:07:16.920Z,66.1555091830392
2023-04-02T03:11:23.898Z,66.35674731481492
2023-04-02T03:14:23.212Z,66.66709887194219
2023-04-02T03:17:22.356Z,67.11470318305358
2023-04-02T03:21:32.422Z,67.51285549306714
2023-04-02T03:24:21.971Z,67.71070175512007
2023-04-02T03:27:20.353Z,67.7820783644819
2023-04-02T03:31:23.751Z,68.19810760115956
2023-04-02T03:34:23.727Z,68.24753935730217
2023-04-02T03:37:21.754Z,68.2206944580435
2023-04-02T03:41:20.478Z,68.4709689729042
2023-04-02T03:44:23.253Z,68.87282796495691
2023-04-02T03:47:23.584Z,68.4447570066457
2023-04-02T03:51:23.620Z,68.21374202638059
2023-04-02T03:54:17.253Z,68.34455430865349
2023-04-02T03:57:28.594Z,68.7664936369934
2023-04-02T04:01:23.383Z,68.41002854688745
2023-04-02T04:04:19.265Z,68.73793343219309
2023-04-02T04:07:27.406Z,68.65831508104323
2023-04-02T04:11:21.755Z,68.85978167907827
2023-04-02T04:14:19.985Z,68.73035996925893
2023-04-02T04:17:24.819Z,69.14316409808688
2023-04-02T04:21:20.155Z,69.4787691338907
2023-04-02T04:24:19.734Z,69.63095982490545
2023-04-02T04:27:25.236Z,69.95123225169992
2023-04-02T04:31:26.647Z,70.06894697399163
2023-04-02T04:34:21.481Z,70.51954698328201
2023-04-02T04:37:26.267Z,70.44879290248406
2023-04-02T04:41:20.027Z,70.53166456652411
2023-04-02T04:44:22.537Z,70.2391275384331
2023-04-02T04:47:19.379Z,70.37234815549226
2023-04-02T04:51:21.262Z,70.5448181513834
2023-04-02T04:54:17.464Z,70.75925433636658
2023-04-02T04:57:28.484Z,70.53416151886206
2023-04-02T05:01:21.414Z,70.23049363126603
2023-04-02T05:04:23.023Z,70.37326104929639
2023-04-02T05:07:21.792Z,70.24001571756239
2023-04-02T05:11:26.090Z,69.92272935855466
2023-04-02T05:14:25.067Z,69.67814559491794
2023-04-02T05:17:21.497Z,69.76129912955655
2023-04-02T05:21:22.243Z,70.02523878281994
2023-04-02T05:25:00.484Z,69.94862697741092
2023-04-02T05:27:24.580Z,69.63843619448636
2023-04-02T05:31:21.359Z,70.02799894362143
2023-04-02T05:34:24.171Z,70.38764893190367
2023-04-02T05:37:21.831Z,70.4359024906319
2023-04-02T05:41:23.430Z,70.61132377911059
2023-04-02T05:44:23.543Z,70.80809251463278
2023-04-02T05:47:23.318Z,71.11529557842594
2023-04-02T05:51:25.089Z,71.3459336357213
2023-04-02T05:54:26.376Z,71.49951453827677
2023-04-02T05:57:39.524Z,71.52555069413825
2023-04-02T06:01:27.467Z,71.77830637695901
2023-04-02T06:04:24.919Z,72.15182981640402
2023-04-02T06:07:21.297Z,72.74317545741738
2023-04-02T06:11:21.268Z,72.72138202399198
2023-04-02T06:14:17.266Z,72.14397799631608
2023-04-02T06:17:18.872Z,71.75590870707624
2023-04-02T06:21:20.107Z,71.52308009164085
2023-04-02T06:24:22.157Z,71.45759036086606
2023-04-02T06:27:19.462Z,71.43681778377207
2023-04-02T06:31:26.801Z,71.6732264880005
2023-04-02T06:34:20.098Z,71.64790655819664
2023-04-02T06:37:23.052Z,72.40718034250956
2023-04-02T06:41:20.603Z,72.48067472815983
2023-04-02T06:51:22.268Z,72.86398926263371
2023-04-02T06:54:18.830Z,72.71871018829749
2023-04-02T06:57:16.775Z,72.09116137009794
2023-04-02T07:01:21.803Z,71.08897754168834
2023-04-02T07:04:20.575Z,70.95570547253124
2023-04-02T07:07:16.858Z,71.45806809279651
2023-04-02T07:11:20.929Z,71.9334578376329
2023-04-02T07:14:17.434Z,72.36291995690001
2023-04-02T07:17:18.927Z,72.2222523603342
2023-04-02T07:21:16.693Z,72.68317297304223
2023-04-02T07:24:16.812Z,73.12011987079069
2023-04-02T07:27:17.000Z,72.77706846870149
2023-04-02T07:31:19.017Z,72.86400626946852
2023-04-02T07:34:16.932Z,72.22005077160036
2023-04-02T07:37:17.306Z,71.97225726246315
2023-04-02T07:41:16.608Z,71.54166208947069
2023-04-02T07:44:16.636Z,70.39743195154456
2023-04-02T07:47:16.462Z,70.17366664878344
2023-04-02T07:51:18.370Z,69.89309680897863
2023-04-02T07:54:16.186Z,69.43073899875583
2023-04-02T07:57:16.459Z,68.95699578582824
2023-04-02T08:01:19.418Z,68.22757088687148
2023-04-02T08:04:19.714Z,68.57621116748412
2023-04-02T08:07:17.301Z,68.12506456454844
2023-04-02T08:11:16.421Z,67.89993284555894
2023-04-02T08:14:16.815Z,66.98851740864227
2023-04-02T08:17:17.201Z,67.16636817710796
2023-04-02T08:21:16.928Z,67.02694117252902
2023-04-02T08:24:20.098Z,67.04082697023634
2023-04-02T08:27:17.395Z,67.10939855646978
2023-04-02T08:31:17.379Z,66.78763414490416
2023-04-02T08:34:16.367Z,66.51223667652572
2023-04-02T08:37:16.335Z,67.1146021250066
2023-04-02T08:41:21.486Z,66.33170092251972
2023-04-02T08:44:28.689Z,65.98415450677065
2023-04-02T08:47:20.355Z,66.05097675126635
2023-04-02T08:51:23.011Z,66.18387871692813
2023-04-02T08:54:24.854Z,65.94114252974505
2023-04-02T08:57:27.903Z,65.11399353447884
2023-04-02T09:01:27.385Z,62.925984517383434
2023-04-02T09:04:20.834Z,61.66282497541204
2023-04-02T09:07:17.543Z,60.451325298614805
2023-04-02T09:11:23.488Z,60.32099443906951
2023-04-02T09:14:19.432Z,59.77115173117386
2023-04-02T09:17:18.907Z,60.049604111409494
2023-04-02T09:21:32.173Z,59.71429847187127
2023-04-02T09:24:16.673Z,59.80478769863368
2023-04-02T09:27:19.500Z,59.272099856877695
2023-04-02T09:31:21.242Z,60.12720244710854
2023-04-02T09:34:33.904Z,60.39979997777081
2023-04-02T09:37:19.508Z,60.53392085742437
2023-04-02T09:41:19.812Z,61.32169949199901
2023-04-02T09:44:21.254Z,61.33752919629991
2023-04-02T09:47:25.214Z,60.80488894057289
2023-04-02T09:51:19.011Z,61.35744184593004
2023-04-02T09:54:16.560Z,59.48909245482794
2023-04-02T09:57:20.057Z,58.114931320835964
2023-04-02T10:01:27.870Z,58.139669716270205
2023-04-02T10:04:34.681Z,58.067819248118305
2023-04-02T10:07:32.708Z,57.69712945451805
2023-04-02T10:11:20.927Z,57.53529784318092
2023-04-02T10:14:20.866Z,56.40438983180644
2023-04-02T10:17:20.052Z,56.2393404916172
2023-04-02T10:21:18.943Z,55.57099340467323
2023-04-02T10:24:17.811Z,55.966982797541164
2023-04-02T10:27:26.731Z,53.212827555938766
2023-04-02T10:31:22.621Z,53.62173455401884
2023-04-02T10:34:23.195Z,53.15529348301815
2023-04-02T10:38:23.628Z,53.64934827509299
2023-04-02T10:41:28.100Z,54.34914108205371
2023-04-02T10:44:33.604Z,53.30108538298077
2023-04-02T10:47:27.915Z,52.657745753877734
2023-04-02T10:51:28.329Z,51.96131839496588
2023-04-02T10:54:32.300Z,51.719847434459666
2023-04-02T10:57:26.431Z,51.48436273417287
2023-04-02T11:01:23.666Z,51.476446959031016
2023-04-02T11:04:21.276Z,53.72535661977573
2023-04-02T11:07:20.700Z,51.261021514927066
2023-04-02T11:11:22.729Z,50.94607789883843
2023-04-02T11:14:22.820Z,49.80244101012413
2023-04-02T11:17:18.847Z,49.75253148245096
2023-04-02T11:21:57.784Z,50.18018875091331
2023-04-02T11:24:31.083Z,48.15893063932918
2023-04-02T11:27:23.761Z,47.43581500245911
2023-04-02T11:31:20.899Z,49.18313336350266
2023-04-02T11:35:06.709Z,46.51814650316442
2023-04-02T11:37:32.529Z,48.0314813914508
2023-04-02T11:42:01.117Z,47.043230786057684
2023-04-02T11:44:23.377Z,47.726266324653714
2023-04-02T11:47:20.453Z,47.50528823819423
2023-04-02T11:51:48.703Z,46.46452189479592
2023-04-02T11:54:25.431Z,46.17874784387709
2023-04-02T11:57:28.509Z,46.26667445418061
2023-04-02T12:01:50.381Z,44.03140952231774
2023-04-02T12:05:12.845Z,43.498081464362684
2023-04-02T12:08:06.254Z,43.90626488703646
2023-04-02T12:11:17.021Z,44.331807951262164
2023-04-02T12:14:43.043Z,45.28574137498982
2023-04-02T12:17:24.585Z,44.55796168375562
2023-04-02T12:21:19.218Z,43.984705287277286
2023-04-02T12:24:21.115Z,43.53715392289971
2023-04-02T12:27:19.716Z,43.199117607072914
2023-04-02T12:31:22.473Z,43.92991961365882
2023-04-02T12:34:19.833Z,43.011351938740276
2023-04-02T12:37:22.219Z,42.80472783815017
2023-04-02T12:41:22.426Z,43.30643393133157
2023-04-02T12:44:19.576Z,41.7528244938048
2023-04-02T12:47:17.420Z,41.367463906251416
2023-04-02T12:54:18.525Z,41.10837857010987
2023-04-02T12:57:26.814Z,40.08254555375215
2023-04-02T13:01:20.969Z,40.86671876080759
2023-04-02T13:04:18.619Z,40.53239375385713
2023-04-02T13:08:26.251Z,40.68825666438711
2023-04-02T13:11:17.010Z,39.56306058089523
2023-04-02T13:14:19.496Z,39.58604663929191
2023-04-02T13:18:04.433Z,38.443016202672496
2023-04-02T13:21:28.983Z,38.61604305730359
2023-04-02T13:24:20.918Z,38.13078854152741
2023-04-02T13:27:19.628Z,38.00361768295121
2023-04-02T13:31:19.785Z,38.546288488692
2023-04-02T13:34:18.900Z,39.55686163509348
2023-04-02T13:37:17.558Z,39.602896192079314
2023-04-02T13:41:21.940Z,38.944172150274525
2023-04-02T13:44:21.654Z,38.28516507381623
2023-04-02T13:47:17.709Z,39.100007411574225
2023-04-02T13:51:18.167Z,38.51617030777885
2023-04-02T13:54:25.530Z,37.54479843446859
2023-04-02T13:57:18.307Z,38.267417575167556
2023-04-02T14:01:20.215Z,35.451405733033546
2023-04-02T14:04:26.241Z,34.577697310928365
2023-04-02T14:07:33.712Z,34.46259304434544
2023-04-02T14:11:28.063Z,34.2426020919795
2023-04-02T14:14:34.619Z,34.589552620187845
2023-04-02T14:17:29.848Z,35.903420384783324
2023-04-02T14:21:23.542Z,35.88012531084241
2023-04-02T14:24:25.116Z,35.075972380902556
2023-04-02T14:27:26.437Z,34.47435281589602
2023-04-02T14:31:23.905Z,34.61424363852952
2023-04-02T14:34:29.003Z,35.40045718694919
2023-04-02T14:37:24.323Z,37.00182975294337
2023-04-02T14:41:23.199Z,36.14544367671322
2023-04-02T14:44:21.738Z,36.683005012076066
2023-04-02T14:47:23.238Z,35.022358009052546
2023-04-02T14:51:25.357Z,35.72819001660709
2023-04-02T14:54:23.818Z,35.9423755397613
2023-04-02T14:57:22.850Z,35.03327279241632
2023-04-02T15:01:21.202Z,35.27674855862901
2023-04-02T15:04:21.078Z,34.30484730236037
2023-04-02T15:07:21.690Z,34.762699691528674
2023-04-02T15:11:20.192Z,35.33055250650059
2023-04-02T15:14:19.879Z,35.49858984630256
2023-04-02T15:17:17.000Z,35.54524015272407
2023-04-02T15:21:46.349Z,36.153013753755296
2023-04-02T15:24:25.478Z,37.44234621117013
2023-04-02T15:27:32.774Z,36.633558216137985
2023-04-02T15:31:20.658Z,36.686138505732075
2023-04-02T15:34:24.374Z,36.38065301916392
2023-04-02T15:37:26.347Z,35.236841380083675
2023-04-02T15:41:23.628Z,35.7868737263588
2023-04-02T15:44:16.655Z,35.879910456082065
2023-04-02T15:47:23.658Z,36.573259736220145
2023-04-02T15:51:32.616Z,34.95630156371618
2023-04-02T15:54:29.583Z,34.91667816078038
2023-04-02T15:57:31.293Z,35.07907302091583
2023-04-02T16:01:31.178Z,35.73831856088248
2023-04-02T16:04:36.662Z,36.183357947888275
2023-04-02T16:07:43.447Z,36.29912691474938
2023-04-02T16:11:16.853Z,36.21356995775738
2023-04-02T16:14:26.096Z,36.6119540156096
2023-04-02T16:17:25.346Z,36.73999355522218
2023-04-02T16:21:24.038Z,37.040677513479345
2023-04-02T16:24:17.279Z,37.104656401000625
2023-04-02T16:27:27.767Z,37.02476816499916
2023-04-02T16:31:25.168Z,37.30197077362414
2023-04-02T16:34:32.228Z,37.30840479973293
2023-04-02T16:37:27.267Z,37.446984154153114
2023-04-02T16:41:27.594Z,38.15536014215981
2023-04-02T16:44:27.733Z,38.25336653897545
2023-04-02T16:47:29.022Z,38.74847234970215
2023-04-02T16:51:25.118Z,38.5647720900715
2023-04-02T16:54:22.529Z,38.605389475157445
2023-04-02T16:57:28.638Z,39.007748505990556
2023-04-02T17:01:25.994Z,38.312821802918286
2023-04-02T17:04:47.717Z,38.97378966867068
2023-04-02T17:07:32.130Z,39.74332867665312
2023-04-02T17:11:25.957Z,40.868345599403916
2023-04-02T17:14:24.711Z,42.35379261899569
2023-04-02T17:17:19.141Z,44.53755560908358
2023-04-02T17:21:23.415Z,44.7130303244763
2023-04-02T17:24:24.842Z,43.93882665611366
2023-04-02T17:27:23.705Z,44.57277879406781
2023-04-02T17:31:19.848Z,46.24874489163117
2023-04-02T17:34:18.361Z,45.32511024415285
2023-04-02T17:37:28.112Z,46.91824607829006
2023-04-02T17:41:23.382Z,46.86078022640893
2023-04-02T17:44:31.684Z,46.89790143125376
2023-04-02T17:47:21.234Z,46.82181035696594
2023-04-02T17:51:25.267Z,46.81998355248819
2023-04-02T17:54:31.228Z,46.97310901062968
2023-04-02T17:57:29.871Z,46.98132946007649
2023-04-02T18:01:28.187Z,47.15108982713773
2023-04-02T18:04:29.208Z,48.05535886640401
2023-04-02T18:07:30.595Z,47.899491113082725
2023-04-02T18:11:26.361Z,47.84805675692529
2023-04-02T18:14:37.571Z,47.867973994681186
2023-04-02T18:17:26.983Z,47.95165856865534
2023-04-02T18:21:29.237Z,48.06267826785393
2023-04-02T18:25:21.677Z,48.41998356387091
2023-04-02T18:27:37.592Z,48.743475495641796
2023-04-02T18:31:27.122Z,49.28905741500579
2023-04-02T18:34:36.253Z,50.31054257503139
2023-04-02T18:37:27.711Z,50.579383460816565
2023-04-02T18:41:28.055Z,51.22750539233588
2023-04-02T18:44:32.955Z,51.732190552245335
2023-04-02T18:47:24.797Z,52.699788493424144
2023-04-02T18:51:20.855Z,52.85755222665464
2023-04-02T18:54:24.660Z,52.92481876323546
2023-04-02T18:57:22.314Z,52.98357984168527
2023-04-02T19:01:28.762Z,53.16938337817767
2023-04-02T19:04:27.412Z,53.432633916962146
2023-04-02T19:07:21.732Z,53.706364530968116
2023-04-02T19:11:19.882Z,53.48430655043388
2023-04-02T19:14:20.247Z,53.58309149144523
2023-04-02T19:17:27.836Z,53.120953985066365
2023-04-02T19:21:26.452Z,52.93413747988459
2023-04-02T19:24:33.829Z,52.85745567251386
2023-04-02T19:27:25.349Z,53.045197576689105
2023-04-02T19:31:34.590Z,52.705200787253254
2023-04-02T19:34:27.759Z,52.431788779448006
2023-04-02T19:37:27.199Z,51.98203983517592
2023-04-02T19:41:30.593Z,52.00303238262305
2023-04-02T19:44:17.901Z,51.22629952179879
2023-04-02T19:48:09.595Z,51.33618109078994
2023-04-02T19:51:17.176Z,50.96232341007205
2023-04-02T19:54:17.433Z,51.4899282019617
2023-04-02T19:57:18.263Z,51.06948433639357
2023-04-02T20:01:17.616Z,51.65346057778154
2023-04-02T20:04:18.122Z,51.09106532531896
2023-04-02T20:07:20.489Z,50.942512091647856
2023-04-02T20:11:16.007Z,50.94743211009363
2023-04-02T20:14:17.513Z,51.51380538893983
2023-04-02T20:17:18.944Z,51.84574294506516
2023-04-02T20:21:16.676Z,52.123163313761225
2023-04-02T20:24:17.239Z,51.798189267596555
2023-04-02T20:27:18.368Z,51.76376224876749
2023-04-02T20:31:18.188Z,51.74605364446786
2023-04-02T20:34:17.701Z,52.07451975391357
2023-04-02T20:37:17.326Z,52.15777395484979
2023-04-02T20:41:18.529Z,52.33131761874109
2023-04-02T20:44:17.000Z,52.43149232328368
2023-04-02T20:47:18.282Z,52.71142424828029
2023-04-02T20:51:16.945Z,52.76799169325107
2023-04-02T20:54:17.584Z,52.46263951388514
2023-04-02T20:57:17.456Z,52.38746426774833
2023-04-02T21:01:18.971Z,52.50438272077515
2023-04-02T21:04:16.606Z,52.21439904609303
2023-04-02T21:07:16.472Z,52.28067668152708
2023-04-02T21:11:18.024Z,52.57957857639178
2023-04-02T21:14:17.600Z,52.40497856361022
2023-04-02T21:17:17.094Z,51.88910631550008
2023-04-02T21:21:18.450Z,51.51945102239428
2023-04-02T21:24:17.206Z,50.15443671852784
2023-04-02T21:27:17.110Z,49.190235497166796
2023-04-02T21:31:18.314Z,49.39454253006744
2023-04-02T21:34:16.518Z,49.83921377743511
2023-04-02T21:37:16.215Z,49.3800180213919
2023-04-02T21:41:18.888Z,49.554909057862936
2023-04-02T21:44:18.679Z,49.68338693095087
2023-04-02T21:47:16.570Z,49.42967109286981
2023-04-02T21:51:19.685Z,49.140106605160895
2023-04-02T21:54:17.060Z,48.41521436369685
2023-04-02T21:57:17.994Z,48.276823933752794
2023-04-02T22:01:26.946Z,48.084569322607486
2023-04-02T22:04:18.525Z,47.97083363430665
2023-04-02T22:07:16.526Z,48.19074670883566
2023-04-02T22:11:19.258Z,48.184123150966116
2023-04-02T22:21:18.257Z,48.69744723528305
2023-04-02T22:24:18.864Z,48.80314298944117
2023-04-02T22:27:17.416Z,49.028350149587666
2023-04-02T22:31:19.178Z,49.06331431911674
2023-04-02T22:34:17.235Z,49.32846876441865
2023-04-02T22:37:17.517Z,49.332524858944204
2023-04-02T22:41:18.883Z,49.072762130646076
2023-04-02T22:44:16.664Z,48.78460693831563
2023-04-02T22:47:16.513Z,48.70951715061111
2023-04-02T23:01:19.490Z,48.603248653542074
2023-04-02T23:04:16.467Z,48.98592210140404
2023-04-02T23:07:16.255Z,48.93045646908048
2023-04-02T23:11:18.954Z,49.00938678735618
2023-04-02T23:14:17.076Z,48.82896644852775
2023-04-02T23:17:16.953Z,48.795194237451
2023-04-02T23:21:17.988Z,49.02040829076385
2023-04-02T23:24:17.456Z,49.09306931435421
2023-04-02T23:27:17.689Z,48.81578767833009
2023-04-02T23:31:18.488Z,48.70834866118213
2023-04-02T23:34:16.710Z,48.792501509306106
2023-04-02T23:37:16.540Z,48.881930385900944
2023-04-02T23:41:16.555Z,48.72928648376671
2023-04-02T23:44:16.437Z,48.695364432718264
2023-04-02T23:47:16.116Z,48.72801003915443
2023-04-02T23:51:16.739Z,48.32113520330201
2023-04-02T23:54:16.764Z,48.12324732994391
2023-04-02T23:57:17.343Z,48.52386111880352
